createdAt,value
2018-08-30T00:00:29.358Z,99.99
2018-08-30T00:01:29.321Z,99.99
2018-08-30T00:02:29.274Z,99.99
2018-08-30T00:03:29.230Z,99.99
2018-08-30T00:04:29.187Z,99.99
2018-08-30T00:05:29.143Z,99.99
2018-08-30T00:06:29.102Z,99.99
2018-08-30T00:07:29.064Z,99.99
2018-08-30T00:08:29.017Z,99.99
2018-08-30T00:09:28.974Z,99.99
2018-08-30T00:10:28.936Z,99.99
2018-08-30T00:11:28.887Z,99.99
2018-08-30T00:12:28.846Z,99.99
2018-08-30T00:13:28.807Z,99.99
2018-08-30T00:14:28.765Z,99.99
2018-08-30T00:15:28.716Z,99.99
2018-08-30T00:16:28.672Z,99.99
2018-08-30T00:17:28.633Z,99.99
2018-08-30T00:18:28.586Z,99.99
2018-08-30T00:19:28.545Z,99.99
2018-08-30T00:20:28.501Z,99.99
2018-08-30T00:21:28.459Z,99.99
2018-08-30T00:22:28.413Z,99.99
2018-08-30T00:23:28.370Z,99.99
2018-08-30T00:24:28.332Z,99.99
2018-08-30T00:25:28.285Z,99.99
2018-08-30T00:26:28.242Z,99.99
2018-08-30T00:27:28.200Z,99.99
2018-08-30T00:28:28.156Z,99.99
2018-08-30T00:29:28.113Z,99.99
2018-08-30T00:30:28.071Z,99.99
2018-08-30T00:31:28.028Z,99.99
2018-08-30T00:32:27.989Z,99.99
2018-08-30T00:33:27.938Z,99.99
2018-08-30T00:34:27.899Z,99.99
2018-08-30T00:35:27.855Z,99.99
2018-08-30T00:36:27.818Z,99.99
2018-08-30T00:37:27.767Z,99.99
2018-08-30T00:38:27.723Z,99.99
2018-08-30T00:39:27.682Z,99.99
2018-08-30T00:40:27.639Z,99.99
2018-08-30T00:41:27.676Z,99.99
2018-08-30T00:42:27.553Z,99.99
2018-08-30T00:43:27.510Z,99.99
2018-08-30T00:44:27.473Z,99.99
2018-08-30T00:45:27.426Z,99.99
2018-08-30T00:46:27.378Z,99.99
2018-08-30T00:47:27.335Z,99.99
2018-08-30T00:48:27.295Z,99.99
2018-08-30T00:49:27.250Z,99.99
2018-08-30T00:50:27.214Z,99.99
2018-08-30T00:51:27.170Z,99.99
2018-08-30T00:52:27.120Z,99.99
2018-08-30T00:53:27.077Z,99.99
2018-08-30T00:54:27.035Z,99.99
2018-08-30T00:55:26.990Z,99.99
2018-08-30T00:56:26.947Z,99.99
2018-08-30T00:57:26.905Z,99.99
2018-08-30T00:58:26.864Z,99.99
2018-08-30T00:59:26.822Z,99.99
2018-08-30T01:00:26.908Z,99.99
2018-08-30T01:01:26.734Z,99.99
2018-08-30T01:02:26.690Z,99.99
2018-08-30T01:03:26.646Z,99.99
2018-08-30T01:04:26.605Z,99.99
2018-08-30T01:05:26.561Z,99.99
2018-08-30T01:06:26.518Z,99.99
2018-08-30T01:07:26.479Z,99.99
2018-08-30T01:08:26.435Z,99.99
2018-08-30T01:09:26.389Z,99.99
2018-08-30T01:10:26.350Z,99.99
2018-08-30T01:11:26.300Z,99.99
2018-08-30T01:12:26.262Z,99.99
2018-08-30T01:13:26.222Z,99.99
2018-08-30T01:14:26.175Z,99.99
2018-08-30T01:15:26.129Z,99.99
2018-08-30T01:16:26.090Z,99.99
2018-08-30T01:17:26.043Z,99.99
2018-08-30T01:18:26.002Z,99.99
2018-08-30T01:19:25.956Z,99.99
2018-08-30T01:20:25.918Z,99.99
2018-08-30T01:21:25.871Z,99.99
2018-08-30T01:22:25.829Z,99.99
2018-08-30T01:23:25.784Z,99.99
2018-08-30T01:24:25.748Z,99.99
2018-08-30T01:25:25.698Z,99.99
2018-08-30T01:26:25.656Z,99.99
2018-08-30T01:27:25.613Z,99.99
2018-08-30T01:28:25.573Z,99.99
2018-08-30T01:29:25.531Z,99.99
2018-08-30T01:30:25.484Z,99.99
2018-08-30T01:31:25.458Z,99.99
2018-08-30T01:32:25.401Z,99.99
2018-08-30T01:33:25.353Z,99.99
2018-08-30T01:34:25.311Z,99.99
2018-08-30T01:35:25.273Z,99.99
2018-08-30T01:36:25.226Z,99.99
2018-08-30T01:37:25.186Z,99.99
2018-08-30T01:38:25.143Z,99.99
2018-08-30T01:39:25.098Z,99.99
2018-08-30T01:40:25.063Z,99.99
2018-08-30T01:41:25.013Z,99.99
2018-08-30T01:42:24.968Z,99.99
2018-08-30T01:43:24.924Z,99.99
2018-08-30T01:44:24.885Z,99.99
2018-08-30T01:45:24.844Z,99.99
2018-08-30T01:46:24.797Z,99.99
2018-08-30T01:47:24.753Z,99.99
2018-08-30T01:48:24.710Z,99.99
2018-08-30T01:49:24.668Z,99.99
2018-08-30T01:50:24.623Z,99.99
2018-08-30T01:51:24.583Z,99.99
2018-08-30T01:52:24.535Z,99.99
2018-08-30T01:53:24.494Z,99.99
2018-08-30T01:54:24.451Z,99.99
2018-08-30T01:55:24.411Z,99.99
2018-08-30T01:56:24.365Z,99.99
2018-08-30T01:57:24.323Z,99.99
2018-08-30T01:58:24.279Z,99.99
2018-08-30T01:59:24.237Z,99.99
2018-08-30T02:00:24.196Z,99.99
2018-08-30T02:01:24.150Z,99.99
2018-08-30T02:02:24.107Z,99.99
2018-08-30T02:03:24.062Z,99.99
2018-08-30T02:04:24.023Z,99.99
2018-08-30T02:05:23.976Z,99.99
2018-08-30T02:06:23.935Z,99.99
2018-08-30T02:07:23.891Z,99.99
2018-08-30T02:08:23.854Z,99.99
2018-08-30T02:09:23.808Z,99.99
2018-08-30T02:10:23.763Z,99.99
2018-08-30T02:11:23.720Z,99.99
2018-08-30T02:12:23.682Z,99.99
2018-08-30T02:13:23.646Z,99.99
2018-08-30T02:14:23.594Z,99.99
2018-08-30T02:15:23.548Z,99.99
2018-08-30T02:16:23.504Z,99.99
2018-08-30T02:17:23.461Z,99.99
2018-08-30T02:18:23.424Z,99.99
2018-08-30T02:19:23.375Z,99.99
2018-08-30T02:20:23.355Z,99.99
2018-08-30T02:21:23.298Z,99.99
2018-08-30T02:22:23.247Z,99.99
2018-08-30T02:23:23.207Z,99.99
2018-08-30T02:24:23.164Z,99.99
2018-08-30T02:25:23.119Z,99.99
2018-08-30T02:26:23.075Z,99.99
2018-08-30T02:27:23.032Z,99.99
2018-08-30T02:28:23.015Z,99.99
2018-08-30T02:29:22.948Z,99.99
2018-08-30T02:30:22.903Z,99.99
2018-08-30T02:31:22.861Z,99.99
2018-08-30T02:32:22.819Z,99.99
2018-08-30T02:33:22.774Z,99.99
2018-08-30T02:34:22.736Z,99.99
2018-08-30T02:35:22.687Z,99.99
2018-08-30T02:36:22.647Z,99.99
2018-08-30T02:37:22.602Z,99.99
2018-08-30T02:38:22.563Z,99.99
2018-08-30T02:39:22.516Z,99.99
2018-08-30T02:40:22.475Z,99.99
2018-08-30T02:41:22.429Z,99.99
2018-08-30T02:42:22.388Z,99.99
2018-08-30T02:43:22.343Z,99.99
2018-08-30T02:44:22.303Z,99.99
2018-08-30T02:45:22.261Z,99.99
2018-08-30T02:46:22.216Z,99.99
2018-08-30T02:47:22.169Z,99.99
2018-08-30T02:48:22.127Z,99.99
2018-08-30T02:49:22.091Z,99.99
2018-08-30T02:50:22.042Z,99.99
2018-08-30T02:51:22.000Z,99.99
2018-08-30T02:52:21.958Z,99.99
2018-08-30T02:53:21.913Z,99.99
2018-08-30T02:54:21.874Z,99.99
2018-08-30T02:55:21.827Z,99.99
2018-08-30T02:56:21.784Z,99.99
2018-08-30T02:57:21.739Z,99.99
2018-08-30T02:58:21.700Z,99.99
2018-08-30T02:59:21.657Z,99.99
2018-08-30T03:00:21.612Z,99.99
2018-08-30T03:01:21.573Z,99.99
2018-08-30T03:02:21.528Z,99.99
2018-08-30T03:03:21.481Z,99.99
2018-08-30T03:04:21.443Z,99.99
2018-08-30T03:05:21.398Z,99.99
2018-08-30T03:06:21.353Z,99.99
2018-08-30T03:07:21.312Z,99.99
2018-08-30T03:08:21.267Z,99.99
2018-08-30T03:09:21.227Z,99.99
2018-08-30T03:10:21.182Z,99.99
2018-08-30T03:11:21.140Z,99.99
2018-08-30T03:12:21.098Z,99.99
2018-08-30T03:13:21.053Z,99.99
2018-08-30T03:14:21.012Z,99.99
2018-08-30T03:15:20.968Z,99.99
2018-08-30T03:16:20.924Z,99.99
2018-08-30T03:17:20.883Z,99.99
2018-08-30T03:18:20.839Z,99.99
2018-08-30T03:19:20.794Z,99.99
2018-08-30T03:20:20.751Z,99.99
2018-08-30T03:21:20.709Z,99.99
2018-08-30T03:22:20.668Z,99.99
2018-08-30T03:23:20.685Z,99.99
2018-08-30T03:24:20.692Z,99.99
2018-08-30T03:25:20.628Z,99.99
2018-08-30T03:26:20.610Z,99.99
2018-08-30T03:27:20.448Z,99.99
2018-08-30T03:28:20.406Z,99.99
2018-08-30T03:29:20.367Z,99.99
2018-08-30T03:30:20.345Z,99.99
2018-08-30T03:31:20.290Z,99.99
2018-08-30T03:32:20.238Z,99.99
2018-08-30T03:33:20.192Z,99.99
2018-08-30T03:34:20.150Z,99.99
2018-08-30T03:35:20.105Z,99.99
2018-08-30T03:36:20.069Z,99.99
2018-08-30T03:37:20.022Z,99.99
2018-08-30T03:38:19.983Z,99.99
2018-08-30T03:39:19.940Z,99.99
2018-08-30T03:40:19.892Z,99.99
2018-08-30T03:41:19.849Z,99.99
2018-08-30T03:42:19.805Z,99.99
2018-08-30T03:43:19.763Z,99.99
2018-08-30T03:44:19.721Z,99.99
2018-08-30T03:45:19.678Z,99.99
2018-08-30T03:46:19.635Z,99.99
2018-08-30T03:47:19.588Z,99.99
2018-08-30T03:48:19.548Z,99.99
2018-08-30T03:49:19.505Z,99.99
2018-08-30T03:50:19.462Z,99.99
2018-08-30T03:51:19.417Z,99.99
2018-08-30T03:52:19.378Z,99.99
2018-08-30T03:53:19.332Z,99.99
2018-08-30T03:54:19.291Z,99.99
2018-08-30T03:55:19.341Z,99.99
2018-08-30T03:56:19.201Z,99.99
2018-08-30T03:57:19.158Z,99.99
2018-08-30T03:58:19.117Z,99.99
2018-08-30T03:59:19.074Z,99.99
2018-08-30T04:00:19.030Z,99.99
2018-08-30T04:01:18.988Z,99.99
2018-08-30T04:02:18.952Z,99.99
2018-08-30T04:03:18.905Z,99.99
2018-08-30T04:04:18.958Z,99.99
2018-08-30T04:05:18.813Z,99.99
2018-08-30T04:06:18.772Z,99.99
2018-08-30T04:07:18.728Z,99.99
2018-08-30T04:08:18.686Z,99.99
2018-08-30T04:09:18.651Z,99.99
2018-08-30T04:10:18.599Z,99.99
2018-08-30T04:11:18.556Z,99.99
2018-08-30T04:12:18.513Z,99.99
2018-08-30T04:13:18.469Z,99.99
2018-08-30T04:14:18.432Z,99.99
2018-08-30T04:15:18.385Z,99.99
2018-08-30T04:16:18.349Z,99.99
2018-08-30T04:17:18.298Z,99.99
2018-08-30T04:18:18.310Z,99.99
2018-08-30T04:19:18.212Z,99.99
2018-08-30T04:20:18.175Z,99.99
2018-08-30T04:21:18.126Z,99.99
2018-08-30T04:22:18.087Z,99.99
2018-08-30T04:23:18.040Z,99.99
2018-08-30T04:24:17.996Z,99.99
2018-08-30T04:25:17.953Z,99.99
2018-08-30T04:26:17.909Z,99.99
2018-08-30T04:27:17.869Z,99.99
2018-08-30T04:28:17.825Z,99.99
2018-08-30T04:29:17.781Z,99.99
2018-08-30T04:30:17.739Z,99.99
2018-08-30T04:31:17.744Z,99.99
2018-08-30T04:32:17.658Z,99.99
2018-08-30T04:33:17.614Z,99.99
2018-08-30T04:34:17.569Z,99.99
2018-08-30T04:35:17.525Z,99.99
2018-08-30T04:36:17.482Z,99.99
2018-08-30T04:37:17.437Z,99.99
2018-08-30T04:38:17.397Z,99.99
2018-08-30T04:39:17.349Z,99.99
2018-08-30T04:40:17.306Z,99.99
2018-08-30T04:41:17.319Z,99.99
2018-08-30T04:42:17.288Z,99.99
2018-08-30T04:43:17.185Z,99.99
2018-08-30T04:44:17.135Z,99.99
2018-08-30T04:45:17.096Z,99.99
2018-08-30T04:46:17.069Z,99.99
2018-08-30T04:47:17.009Z,99.99
2018-08-30T04:48:16.964Z,99.99
2018-08-30T04:49:16.920Z,99.99
2018-08-30T04:50:16.995Z,99.99
2018-08-30T04:51:16.833Z,99.99
2018-08-30T04:52:16.790Z,99.99
2018-08-30T04:53:16.749Z,99.99
2018-08-30T04:54:16.705Z,99.99
2018-08-30T04:55:16.668Z,99.99
2018-08-30T04:56:16.617Z,99.99
2018-08-30T04:57:16.575Z,99.99
2018-08-30T04:58:16.533Z,99.99
2018-08-30T04:59:16.488Z,99.99
2018-08-30T05:00:16.448Z,99.99
2018-08-30T05:01:16.404Z,99.99
2018-08-30T05:02:16.362Z,99.99
2018-08-30T05:03:16.320Z,99.99
2018-08-30T05:04:16.283Z,99.99
2018-08-30T05:05:16.239Z,99.99
2018-08-30T05:06:16.192Z,99.99
2018-08-30T05:07:16.148Z,99.99
2018-08-30T05:08:16.104Z,99.99
2018-08-30T05:09:16.062Z,99.99
2018-08-30T05:10:16.024Z,99.99
2018-08-30T05:11:15.972Z,99.99
2018-08-30T05:12:15.930Z,99.99
2018-08-30T05:13:15.888Z,99.99
2018-08-30T05:14:15.846Z,99.99
2018-08-30T05:15:15.802Z,99.99
2018-08-30T05:16:15.760Z,99.99
2018-08-30T05:17:15.718Z,99.99
2018-08-30T05:18:15.677Z,99.99
2018-08-30T05:19:15.629Z,99.99
2018-08-30T05:20:15.587Z,99.99
2018-08-30T05:21:15.544Z,99.99
2018-08-30T05:22:15.514Z,99.99
2018-08-30T05:23:15.457Z,99.99
2018-08-30T05:24:15.415Z,99.99
2018-08-30T05:25:15.370Z,99.99
2018-08-30T05:26:15.328Z,99.99
2018-08-30T05:27:15.286Z,99.99
2018-08-30T05:28:15.258Z,99.99
2018-08-30T05:29:15.203Z,99.99
2018-08-30T05:30:15.159Z,99.99
2018-08-30T05:31:15.117Z,99.99
2018-08-30T05:32:15.073Z,99.99
2018-08-30T05:33:15.030Z,99.99
2018-08-30T05:34:14.984Z,99.99
2018-08-30T05:35:14.943Z,99.99
2018-08-30T05:36:14.899Z,99.99
2018-08-30T05:37:14.856Z,99.99
2018-08-30T05:38:14.816Z,99.99
2018-08-30T05:39:14.771Z,99.99
2018-08-30T05:40:14.735Z,99.99
2018-08-30T05:41:14.688Z,99.99
2018-08-30T05:42:14.641Z,99.99
2018-08-30T05:43:14.601Z,99.99
2018-08-30T05:44:14.557Z,99.99
2018-08-30T05:45:14.516Z,99.99
2018-08-30T05:46:14.477Z,99.99
2018-08-30T05:47:14.425Z,99.99
2018-08-30T05:48:14.387Z,99.99
2018-08-30T05:49:14.341Z,99.99
2018-08-30T05:50:14.298Z,99.99
2018-08-30T05:51:14.254Z,99.99
2018-08-30T05:52:14.214Z,99.99
2018-08-30T05:53:14.170Z,99.99
2018-08-30T05:54:14.124Z,99.99
2018-08-30T05:55:14.085Z,99.99
2018-08-30T05:56:14.041Z,99.99
2018-08-30T05:57:13.997Z,99.99
2018-08-30T05:58:13.957Z,99.99
2018-08-30T05:59:13.910Z,99.99
2018-08-30T06:00:13.866Z,99.99
2018-08-30T06:01:13.824Z,99.99
2018-08-30T06:02:13.784Z,99.99
2018-08-30T06:03:13.738Z,99.99
2018-08-30T06:04:13.696Z,99.99
2018-08-30T06:05:13.654Z,99.99
2018-08-30T06:06:13.614Z,99.99
2018-08-30T06:07:13.590Z,99.99
2018-08-30T06:08:13.555Z,99.99
2018-08-30T06:09:13.481Z,99.99
2018-08-30T06:10:13.439Z,99.99
2018-08-30T06:11:13.395Z,99.99
2018-08-30T06:12:13.350Z,99.99
2018-08-30T06:13:13.488Z,99.99
2018-08-30T06:14:13.268Z,99.99
2018-08-30T06:15:13.224Z,99.99
2018-08-30T06:16:13.183Z,99.99
2018-08-30T06:17:13.148Z,99.99
2018-08-30T06:18:13.096Z,99.99
2018-08-30T06:19:13.051Z,99.99
2018-08-30T06:20:13.015Z,99.99
2018-08-30T06:21:12.966Z,99.99
2018-08-30T06:22:12.922Z,99.99
2018-08-30T06:23:12.882Z,99.99
2018-08-30T06:24:12.838Z,99.99
2018-08-30T06:25:12.794Z,99.99
2018-08-30T06:26:12.753Z,99.99
2018-08-30T06:27:12.709Z,99.99
2018-08-30T06:28:12.665Z,99.99
2018-08-30T06:29:12.670Z,99.99
2018-08-30T06:30:12.581Z,99.99
2018-08-30T06:31:12.538Z,99.99
2018-08-30T06:32:12.493Z,99.99
2018-08-30T06:33:12.449Z,99.99
2018-08-30T06:34:12.410Z,99.99
2018-08-30T06:35:12.363Z,99.99
2018-08-30T06:36:12.322Z,99.99
2018-08-30T06:37:12.284Z,99.99
2018-08-30T06:38:12.240Z,99.99
2018-08-30T06:39:12.196Z,99.99
2018-08-30T06:40:12.150Z,99.99
2018-08-30T06:41:12.110Z,99.99
2018-08-30T06:42:12.065Z,99.99
2018-08-30T06:43:12.021Z,99.99
2018-08-30T06:44:11.978Z,99.99
2018-08-30T06:45:11.936Z,99.99
2018-08-30T06:46:11.894Z,99.99
2018-08-30T06:47:11.850Z,99.99
2018-08-30T06:48:11.807Z,99.99
2018-08-30T06:49:11.765Z,99.99
2018-08-30T06:50:11.722Z,99.99
2018-08-30T06:51:11.680Z,99.99
2018-08-30T06:52:11.635Z,99.99
2018-08-30T06:53:11.599Z,99.99
2018-08-30T06:54:11.551Z,99.99
2018-08-30T06:55:11.508Z,99.99
2018-08-30T06:56:11.478Z,99.99
2018-08-30T06:57:11.427Z,99.99
2018-08-30T06:58:11.380Z,99.99
2018-08-30T06:59:11.337Z,99.99
2018-08-30T07:00:11.292Z,99.99
2018-08-30T07:01:11.250Z,99.99
2018-08-30T07:02:11.212Z,99.99
2018-08-30T07:03:11.166Z,99.99
2018-08-30T07:04:11.165Z,99.99
2018-08-30T07:05:11.083Z,99.99
2018-08-30T07:06:11.039Z,99.99
2018-08-30T07:07:10.994Z,99.99
2018-08-30T07:08:10.983Z,99.99
2018-08-30T07:09:10.910Z,99.99
2018-08-30T07:10:10.869Z,99.99
2018-08-30T07:11:10.850Z,99.99
2018-08-30T07:12:10.781Z,99.99
2018-08-30T07:13:10.740Z,99.99
2018-08-30T07:14:10.696Z,99.99
2018-08-30T07:15:10.653Z,99.99
2018-08-30T07:16:10.610Z,99.99
2018-08-30T07:17:10.568Z,99.99
2018-08-30T07:18:10.525Z,99.99
2018-08-30T07:19:10.482Z,99.99
2018-08-30T07:20:10.438Z,99.99
2018-08-30T07:21:10.448Z,99.99
2018-08-30T07:22:10.360Z,99.99
2018-08-30T07:23:10.312Z,99.99
2018-08-30T07:24:10.324Z,99.99
2018-08-30T07:25:10.225Z,99.99
2018-08-30T07:26:10.185Z,99.99
2018-08-30T07:27:10.141Z,99.99
2018-08-30T07:28:10.102Z,99.99
2018-08-30T07:29:10.061Z,99.99
2018-08-30T07:30:10.019Z,99.99
2018-08-30T07:31:09.971Z,99.99
2018-08-30T07:32:09.931Z,99.99
2018-08-30T07:33:09.888Z,99.99
2018-08-30T07:34:09.891Z,99.99
2018-08-30T07:35:09.896Z,99.99
2018-08-30T07:36:09.762Z,99.99
2018-08-30T07:37:09.717Z,99.99
2018-08-30T07:38:09.686Z,99.99
2018-08-30T07:39:09.641Z,99.99
2018-08-30T07:40:09.591Z,99.99
2018-08-30T07:41:09.553Z,99.99
2018-08-30T07:42:09.516Z,99.99
2018-08-30T07:43:09.461Z,99.99
2018-08-30T07:44:09.501Z,99.99
2018-08-30T07:45:09.377Z,99.99
2018-08-30T07:46:09.339Z,99.99
2018-08-30T07:47:09.354Z,99.99
2018-08-30T07:48:09.253Z,99.99
2018-08-30T07:49:09.207Z,99.99
2018-08-30T07:50:09.168Z,99.99
2018-08-30T07:51:09.127Z,99.99
2018-08-30T07:52:09.082Z,99.99
2018-08-30T07:53:09.040Z,99.99
2018-08-30T07:54:08.996Z,99.99
2018-08-30T07:55:08.954Z,99.99
2018-08-30T07:56:08.917Z,99.99
2018-08-30T07:57:08.873Z,99.99
2018-08-30T07:58:08.832Z,99.99
2018-08-30T07:59:08.793Z,99.99
2018-08-30T08:00:08.808Z,99.99
2018-08-30T08:01:08.700Z,99.99
2018-08-30T08:02:08.665Z,99.99
2018-08-30T08:03:08.617Z,99.99
2018-08-30T08:04:08.577Z,99.99
2018-08-30T08:05:08.538Z,99.99
2018-08-30T08:06:08.550Z,99.99
2018-08-30T08:07:08.463Z,99.99
2018-08-30T08:08:08.410Z,99.99
2018-08-30T08:09:08.368Z,99.99
2018-08-30T08:10:08.326Z,99.99
2018-08-30T08:11:08.285Z,99.99
2018-08-30T08:12:08.239Z,99.99
2018-08-30T08:13:08.195Z,99.99
2018-08-30T08:14:08.162Z,99.99
2018-08-30T08:15:08.111Z,99.99
2018-08-30T08:16:08.075Z,99.99
2018-08-30T08:17:08.030Z,98.68
2018-08-30T08:18:07.988Z,99.15
2018-08-30T08:19:07.967Z,99.99
2018-08-30T08:20:07.906Z,98.68
2018-08-30T08:21:07.861Z,98.77
2018-08-30T08:22:07.824Z,98.86
2018-08-30T08:23:07.778Z,98.77
2018-08-30T08:24:07.738Z,99.63
2018-08-30T08:25:07.693Z,97.14
2018-08-30T08:26:07.658Z,98.00
2018-08-30T08:27:07.612Z,96.47
2018-08-30T08:28:07.572Z,95.79
2018-08-30T08:29:07.532Z,94.78
2018-08-30T08:30:07.489Z,96.70
2018-08-30T08:31:07.557Z,95.70
2018-08-30T08:32:07.406Z,95.60
2018-08-30T08:33:07.361Z,95.79
2018-08-30T08:34:07.322Z,95.89
2018-08-30T08:35:07.279Z,95.89
2018-08-30T08:36:07.243Z,95.40
2018-08-30T08:37:07.194Z,95.70
2018-08-30T08:38:07.153Z,96.66
2018-08-30T08:39:07.111Z,96.42
2018-08-30T08:40:07.074Z,95.07
2018-08-30T08:41:07.028Z,94.30
2018-08-30T08:42:07.036Z,94.59
2018-08-30T08:43:06.948Z,94.01
2018-08-30T08:44:06.905Z,94.01
2018-08-30T08:45:06.866Z,94.01
2018-08-30T08:46:06.823Z,94.59
2018-08-30T08:47:06.781Z,91.32
2018-08-30T08:48:06.742Z,91.71
2018-08-30T08:49:06.700Z,91.80
2018-08-30T08:50:06.660Z,91.42
2018-08-30T08:51:06.625Z,92.76
2018-08-30T08:52:06.572Z,91.80
2018-08-30T08:53:06.533Z,92.76
2018-08-30T08:54:06.489Z,92.57
2018-08-30T08:55:06.448Z,92.29
2018-08-30T08:56:06.406Z,92.91
2018-08-30T08:57:06.365Z,92.91
2018-08-30T08:58:06.327Z,92.43
2018-08-30T08:59:06.338Z,91.08
2018-08-30T09:00:06.244Z,89.06
2018-08-30T09:01:06.201Z,89.10
2018-08-30T09:02:06.160Z,89.10
2018-08-30T09:03:06.120Z,89.49
2018-08-30T09:04:06.079Z,88.33
2018-08-30T09:05:06.038Z,89.10
2018-08-30T09:06:05.997Z,88.43
2018-08-30T09:07:06.017Z,88.04
2018-08-30T09:08:05.912Z,88.43
2018-08-30T09:09:05.874Z,86.12
2018-08-30T09:10:05.832Z,85.35
2018-08-30T09:11:05.796Z,83.75
2018-08-30T09:12:05.750Z,85.00
2018-08-30T09:13:05.712Z,85.39
2018-08-30T09:14:05.668Z,82.50
2018-08-30T09:15:05.634Z,83.95
2018-08-30T09:16:05.589Z,83.08
2018-08-30T09:17:05.548Z,82.60
2018-08-30T09:18:05.508Z,82.64
2018-08-30T09:19:05.465Z,83.51
2018-08-30T09:20:05.429Z,83.99
2018-08-30T09:21:05.385Z,83.99
2018-08-30T09:22:05.344Z,82.74
2018-08-30T09:23:05.368Z,81.87
2018-08-30T09:24:05.261Z,80.85
2018-08-30T09:25:05.223Z,80.71
2018-08-30T09:26:05.183Z,80.46
2018-08-30T09:27:05.170Z,80.66
2018-08-30T09:28:05.102Z,80.46
2018-08-30T09:29:05.066Z,81.04
2018-08-30T09:30:05.025Z,78.92
2018-08-30T09:31:05.079Z,79.69
2018-08-30T09:32:04.939Z,78.73
2018-08-30T09:33:04.904Z,79.21
2018-08-30T09:34:04.860Z,78.15
2018-08-30T09:35:04.823Z,76.32
2018-08-30T09:36:04.779Z,77.76
2018-08-30T09:37:04.740Z,77.67
2018-08-30T09:38:04.700Z,77.48
2018-08-30T09:39:04.658Z,77.00
2018-08-30T09:40:04.631Z,78.34
2018-08-30T09:41:04.580Z,77.00
2018-08-30T09:42:04.537Z,77.28
2018-08-30T09:43:04.501Z,77.76
2018-08-30T09:44:04.505Z,78.63
2018-08-30T09:45:04.421Z,76.71
2018-08-30T09:46:04.377Z,74.97
2018-08-30T09:47:04.341Z,76.13
2018-08-30T09:48:04.300Z,75.74
2018-08-30T09:49:04.255Z,76.80
2018-08-30T09:50:04.214Z,76.71
2018-08-30T09:51:04.176Z,76.51
2018-08-30T09:52:04.134Z,75.99
2018-08-30T09:53:04.094Z,75.99
2018-08-30T09:54:04.053Z,76.18
2018-08-30T09:55:04.013Z,76.28
2018-08-30T09:56:03.977Z,77.06
2018-08-30T09:57:04.121Z,77.25
2018-08-30T09:58:03.892Z,77.53
2018-08-30T09:59:03.852Z,78.31
2018-08-30T10:00:03.812Z,78.59
2018-08-30T10:01:03.779Z,77.53
2018-08-30T10:02:03.737Z,76.48
2018-08-30T10:03:03.688Z,76.18
2018-08-30T10:04:03.648Z,75.51
2018-08-30T10:05:03.632Z,76.86
2018-08-30T10:06:03.575Z,77.01
2018-08-30T10:07:03.531Z,77.25
2018-08-30T10:08:03.485Z,77.53
2018-08-30T10:09:03.444Z,77.53
2018-08-30T10:10:03.404Z,76.86
2018-08-30T10:11:03.363Z,76.96
2018-08-30T10:12:03.323Z,77.00
2018-08-30T10:13:03.284Z,76.90
2018-08-30T10:14:03.244Z,77.00
2018-08-30T10:15:03.202Z,75.45
2018-08-30T10:16:03.343Z,75.84
2018-08-30T10:17:03.119Z,76.13
2018-08-30T10:18:03.084Z,75.36
2018-08-30T10:19:03.040Z,76.71
2018-08-30T10:20:03.003Z,74.49
2018-08-30T10:21:02.960Z,74.68
2018-08-30T10:22:02.920Z,73.72
2018-08-30T10:23:02.878Z,72.08
2018-08-30T10:24:02.841Z,72.37
2018-08-30T10:25:02.800Z,72.37
2018-08-30T10:26:02.757Z,73.05
2018-08-30T10:27:02.719Z,74.78
2018-08-30T10:28:02.674Z,74.30
2018-08-30T10:29:02.637Z,73.72
2018-08-30T10:30:02.603Z,74.10
2018-08-30T10:31:02.555Z,73.91
2018-08-30T10:32:02.513Z,74.10
2018-08-30T10:33:02.473Z,74.78
2018-08-30T10:34:02.438Z,73.33
2018-08-30T10:35:02.396Z,73.24
2018-08-30T10:36:02.351Z,73.82
2018-08-30T10:37:02.384Z,73.53
2018-08-30T10:38:02.275Z,74.49
2018-08-30T10:39:02.230Z,71.37
2018-08-30T10:40:02.190Z,70.98
2018-08-30T10:41:02.156Z,72.24
2018-08-30T10:42:02.121Z,71.47
2018-08-30T10:43:02.181Z,70.50
2018-08-30T10:44:02.032Z,70.21
2018-08-30T10:45:01.988Z,71.66
2018-08-30T10:46:01.949Z,70.70
2018-08-30T10:47:01.908Z,71.56
2018-08-30T10:48:01.873Z,72.91
2018-08-30T10:49:01.826Z,73.49
2018-08-30T10:50:01.855Z,71.95
2018-08-30T10:51:01.744Z,72.05
2018-08-30T10:52:01.702Z,72.43
2018-08-30T10:53:01.662Z,72.63
2018-08-30T10:54:01.623Z,72.14
2018-08-30T10:55:01.584Z,70.70
2018-08-30T10:56:01.540Z,71.56
2018-08-30T10:57:01.504Z,71.66
2018-08-30T10:58:01.490Z,71.12
2018-08-30T10:59:01.420Z,70.25
2018-08-30T11:00:01.379Z,72.08
2018-08-30T11:01:01.341Z,69.09
2018-08-30T11:02:01.299Z,68.32
2018-08-30T11:03:01.256Z,68.84
2018-08-30T11:04:01.219Z,69.61
2018-08-30T11:05:01.185Z,68.84
2018-08-30T11:06:01.141Z,67.97
2018-08-30T11:07:01.095Z,65.40
2018-08-30T11:08:01.056Z,65.20
2018-08-30T11:09:01.017Z,63.85
2018-08-30T11:10:01.021Z,64.63
2018-08-30T11:11:00.933Z,63.57
2018-08-30T11:12:00.901Z,63.18
2018-08-30T11:13:00.966Z,62.31
2018-08-30T11:14:00.816Z,63.28
2018-08-30T11:15:00.775Z,64.72
2018-08-30T11:16:00.739Z,64.43
2018-08-30T11:17:00.697Z,64.53
2018-08-30T11:18:00.654Z,63.76
2018-08-30T11:19:00.613Z,62.70
2018-08-30T11:20:00.574Z,63.09
2018-08-30T11:21:00.535Z,62.41
2018-08-30T11:22:00.495Z,64.43
2018-08-30T11:23:00.456Z,63.67
2018-08-30T11:24:00.418Z,63.28
2018-08-30T11:25:00.375Z,63.37
2018-08-30T11:26:00.335Z,63.37
2018-08-30T11:27:00.299Z,63.76
2018-08-30T11:28:00.254Z,62.12
2018-08-30T11:29:00.215Z,63.50
2018-08-30T11:30:00.178Z,61.67
2018-08-30T11:31:00.135Z,62.05
2018-08-30T11:32:00.099Z,60.31
2018-08-30T11:33:00.056Z,59.25
2018-08-30T11:34:00.018Z,59.38
2018-08-30T11:34:59.980Z,59.48
2018-08-30T11:35:59.939Z,59.96
2018-08-30T11:36:59.897Z,60.83
2018-08-30T11:37:59.858Z,60.83
2018-08-30T11:38:59.818Z,58.80
2018-08-30T11:39:59.786Z,58.15
2018-08-30T11:40:59.737Z,59.22
2018-08-30T11:41:59.700Z,59.51
2018-08-30T11:42:59.658Z,55.65
2018-08-30T11:43:59.620Z,54.97
2018-08-30T11:44:59.580Z,55.74
2018-08-30T11:45:59.543Z,57.77
2018-08-30T11:46:59.504Z,58.95
2018-08-30T11:47:59.464Z,59.73
2018-08-30T11:48:59.437Z,57.79
2018-08-30T11:49:59.385Z,57.03
2018-08-30T11:50:59.345Z,57.79
2018-08-30T11:51:59.305Z,57.63
2018-08-30T11:52:59.266Z,55.70
2018-08-30T11:53:59.226Z,54.35
2018-08-30T11:54:59.187Z,55.79
2018-08-30T11:55:59.173Z,55.70
2018-08-30T11:56:59.112Z,55.21
2018-08-30T11:57:59.072Z,55.60
2018-08-30T11:58:59.034Z,53.77
2018-08-30T11:59:59.000Z,54.35
2018-08-30T12:00:59.179Z,55.31
2018-08-30T12:01:58.919Z,55.11
2018-08-30T12:02:58.881Z,55.31
2018-08-30T12:03:58.839Z,55.02
2018-08-30T12:04:58.808Z,55.70
2018-08-30T12:05:58.766Z,55.60
2018-08-30T12:06:58.769Z,56.57
2018-08-30T12:07:58.742Z,57.92
2018-08-30T12:08:58.646Z,57.44
2018-08-30T12:09:58.608Z,56.86
2018-08-30T12:10:58.695Z,55.99
2018-08-30T12:11:58.530Z,56.09
2018-08-30T12:12:58.489Z,56.95
2018-08-30T12:13:58.456Z,56.02
2018-08-30T12:14:58.415Z,56.60
2018-08-30T12:15:58.372Z,55.05
2018-08-30T12:16:58.382Z,53.41
2018-08-30T12:17:58.297Z,53.72
2018-08-30T12:18:58.286Z,54.59
2018-08-30T12:19:58.222Z,53.85
2018-08-30T12:20:58.180Z,52.39
2018-08-30T12:21:58.144Z,51.32
2018-08-30T12:22:58.104Z,52.90
2018-08-30T12:23:58.064Z,51.16
2018-08-30T12:24:58.027Z,50.67
2018-08-30T12:25:57.988Z,49.80
2018-08-30T12:26:57.952Z,49.92
2018-08-30T12:27:57.913Z,51.09
2018-08-30T12:28:57.928Z,50.12
2018-08-30T12:29:57.868Z,48.69
2018-08-30T12:30:57.800Z,48.78
2018-08-30T12:31:57.865Z,49.66
2018-08-30T12:32:57.736Z,49.46
2018-08-30T12:33:57.692Z,48.00
2018-08-30T12:34:57.752Z,49.37
2018-08-30T12:35:57.759Z,49.29
2018-08-30T12:36:57.576Z,46.75
2018-08-30T12:37:57.538Z,47.62
2018-08-30T12:38:57.519Z,47.69
2018-08-30T12:39:57.585Z,48.85
2018-08-30T12:40:57.472Z,47.67
2018-08-30T12:41:57.492Z,47.96
2018-08-30T12:42:57.536Z,50.41
2018-08-30T12:43:57.426Z,49.34
2018-08-30T12:44:57.283Z,47.79
2018-08-30T12:45:57.274Z,48.27
2018-08-30T12:46:57.251Z,46.65
2018-08-30T12:47:57.163Z,46.16
2018-08-30T12:48:57.142Z,47.72
2018-08-30T12:49:57.136Z,48.10
2018-08-30T12:50:57.146Z,48.22
2018-08-30T12:51:57.221Z,48.44